createdAt,value
2018-11-27T00:00:18.369Z,1.87
2018-11-27T00:02:48.462Z,1.80
2018-11-27T00:05:19.025Z,1.87
2018-11-27T00:07:49.818Z,1.86
2018-11-27T00:10:20.530Z,1.86
2018-11-27T00:12:50.788Z,1.87
2018-11-27T00:15:22.032Z,1.84
2018-11-27T00:17:52.667Z,1.84
2018-11-27T00:20:23.276Z,1.82
2018-11-27T00:22:53.702Z,1.84
2018-11-27T00:25:27.000Z,1.82
2018-11-27T00:28:01.742Z,1.80
2018-11-27T00:30:34.029Z,1.83
2018-11-27T00:33:05.327Z,1.87
2018-11-27T00:35:36.121Z,1.83
2018-11-27T00:38:09.099Z,1.83
2018-11-27T00:40:40.020Z,1.81
2018-11-27T00:43:10.180Z,1.83
2018-11-27T00:45:41.081Z,1.89
2018-11-27T00:48:12.123Z,1.81
2018-11-27T00:50:42.980Z,1.74
2018-11-27T00:53:12.966Z,1.71
2018-11-27T00:55:44.171Z,1.73
2018-11-27T00:58:16.588Z,1.72
2018-11-27T01:00:48.080Z,1.75
2018-11-27T01:03:18.991Z,1.73
2018-11-27T01:05:49.126Z,1.74
2018-11-27T01:08:19.311Z,1.74
2018-11-27T01:10:51.215Z,1.72
2018-11-27T01:13:21.872Z,1.70
2018-11-27T01:15:52.362Z,1.68
2018-11-27T01:18:23.810Z,1.66
2018-11-27T01:20:54.331Z,1.64
2018-11-27T01:23:31.034Z,1.65
2018-11-27T01:26:01.234Z,1.66
2018-11-27T01:28:32.182Z,1.64
2018-11-27T01:31:03.226Z,1.62
2018-11-27T01:33:33.241Z,1.60
2018-11-27T01:36:04.320Z,1.57
2018-11-27T01:38:34.357Z,1.55
2018-11-27T01:41:05.283Z,1.54
2018-11-27T01:43:35.855Z,1.52
2018-11-27T01:46:06.528Z,1.53
2018-11-27T01:48:39.889Z,1.54
2018-11-27T01:51:10.447Z,1.52
2018-11-27T01:53:41.400Z,1.53
2018-11-27T01:56:11.571Z,1.50
2018-11-27T02:01:59.126Z,1.49
2018-11-27T02:04:31.364Z,1.48
2018-11-27T02:07:02.585Z,1.45
2018-11-27T02:09:36.367Z,1.44
2018-11-27T02:12:07.141Z,1.40
2018-11-27T02:14:37.519Z,1.38
2018-11-27T02:17:08.652Z,1.38
2018-11-27T02:19:39.493Z,1.40
2018-11-27T02:22:10.307Z,1.38
2018-11-27T02:24:40.526Z,1.37
2018-11-27T02:27:12.165Z,1.27
2018-11-27T02:29:42.564Z,1.37
2018-11-27T02:32:13.245Z,1.40
2018-11-27T02:34:43.552Z,1.39
2018-11-27T02:37:14.327Z,1.40
2018-11-27T02:39:44.667Z,1.41
2018-11-27T02:42:19.503Z,1.54
2018-11-27T02:44:51.613Z,1.45
2018-11-27T02:47:22.608Z,1.44
2018-11-27T02:49:52.601Z,1.43
2018-11-27T02:52:27.500Z,1.40
2018-11-27T02:54:57.594Z,1.44
2018-11-27T02:57:27.680Z,1.44
2018-11-27T02:59:58.854Z,1.45
2018-11-27T03:02:29.574Z,1.44
2018-11-27T03:04:59.596Z,1.42
2018-11-27T03:07:30.804Z,1.43
2018-11-27T03:10:01.798Z,1.47
2018-11-27T03:12:31.797Z,1.45
2018-11-27T03:15:07.125Z,1.41
2018-11-27T03:17:39.656Z,1.39
2018-11-27T03:20:11.400Z,1.35
2018-11-27T03:22:41.483Z,1.35
2018-11-27T03:25:19.611Z,1.32
2018-11-27T03:27:52.806Z,1.32
2018-11-27T03:30:26.814Z,1.31
2018-11-27T03:33:08.898Z,1.27
2018-11-27T03:35:38.912Z,1.27
2018-11-27T03:38:15.673Z,1.29
2018-11-27T03:40:46.679Z,1.24
2018-11-27T03:43:16.668Z,1.24
2018-11-27T03:45:47.641Z,1.24
2018-11-27T03:48:18.261Z,1.27
2018-11-27T03:50:48.903Z,1.24
2018-11-27T03:53:19.363Z,1.24
2018-11-27T03:55:52.698Z,1.32
2018-11-27T03:58:22.851Z,1.27
2018-11-27T04:00:54.032Z,1.29
2018-11-27T04:03:26.875Z,1.29
2018-11-27T04:05:57.892Z,1.32
2018-11-27T04:08:29.004Z,1.31
2018-11-27T04:10:59.907Z,1.28
2018-11-27T04:13:29.991Z,1.30
2018-11-27T04:16:00.103Z,1.30
2018-11-27T04:18:30.643Z,1.28
2018-11-27T04:21:02.108Z,1.30
2018-11-27T04:23:32.112Z,1.28
2018-11-27T04:26:03.074Z,1.28
2018-11-27T04:28:34.051Z,1.26
2018-11-27T04:31:05.226Z,1.28
2018-11-27T04:33:35.984Z,1.29
2018-11-27T04:36:06.808Z,1.28
2018-11-27T04:38:37.107Z,1.29
2018-11-27T04:41:07.317Z,1.29
2018-11-27T04:43:38.066Z,1.28
2018-11-27T04:46:15.031Z,1.31
2018-11-27T04:48:46.104Z,1.33
2018-11-27T04:51:16.380Z,1.33
2018-11-27T04:53:47.061Z,1.33
2018-11-27T04:56:20.124Z,1.33
2018-11-27T04:58:50.996Z,1.34
2018-11-27T05:01:21.536Z,1.33
2018-11-27T05:03:52.283Z,1.33
2018-11-27T05:06:22.744Z,1.34
2018-11-27T05:08:53.432Z,1.35
2018-11-27T05:11:23.439Z,1.36
2018-11-27T05:13:54.189Z,1.37
2018-11-27T05:16:28.116Z,1.38
2018-11-27T05:18:58.207Z,1.37
2018-11-27T05:21:29.391Z,1.39
2018-11-27T05:24:06.937Z,1.40
2018-11-27T05:26:37.368Z,1.41
2018-11-27T05:29:10.371Z,1.40
2018-11-27T05:31:41.385Z,1.39
2018-11-27T05:34:12.436Z,1.39
2018-11-27T05:36:48.105Z,1.40
2018-11-27T05:39:19.448Z,1.40
2018-11-27T05:41:50.296Z,1.40
2018-11-27T05:44:21.489Z,1.42
2018-11-27T05:47:00.318Z,1.47
2018-11-27T05:49:31.469Z,1.49
2018-11-27T05:52:02.448Z,1.46
2018-11-27T05:54:33.678Z,1.46
2018-11-27T05:57:06.812Z,1.47
2018-11-27T05:59:37.430Z,1.49
2018-11-27T06:02:08.693Z,1.49
2018-11-27T06:04:38.743Z,1.47
2018-11-27T06:07:09.732Z,1.49
2018-11-27T06:09:39.731Z,1.46
2018-11-27T06:12:10.515Z,1.45
2018-11-27T06:14:40.640Z,1.47
2018-11-27T06:17:11.812Z,0.78
2018-11-27T06:19:42.278Z,1.52
2018-11-27T06:22:12.588Z,1.50
2018-11-27T06:24:43.516Z,1.51
2018-11-27T06:27:14.368Z,1.53
2018-11-27T06:29:44.587Z,1.53
2018-11-27T06:32:21.497Z,1.58
2018-11-27T06:34:52.731Z,1.58
2018-11-27T06:37:31.603Z,1.59
2018-11-27T06:40:02.631Z,1.61
2018-11-27T06:42:33.663Z,1.67
2018-11-27T06:45:04.985Z,1.72
2018-11-27T06:47:35.022Z,1.68
2018-11-27T06:50:06.602Z,1.68
2018-11-27T06:52:36.667Z,1.69
2018-11-27T06:55:09.548Z,1.74
2018-11-27T06:57:41.828Z,1.72
2018-11-27T07:00:16.740Z,1.79
2018-11-27T07:02:48.859Z,1.75
2018-11-27T07:05:20.170Z,1.80
2018-11-27T07:07:52.838Z,1.78
2018-11-27T07:10:28.735Z,1.82
2018-11-27T07:13:06.639Z,1.78
2018-11-27T07:15:36.823Z,1.78
2018-11-27T07:18:08.748Z,1.84
2018-11-27T07:20:40.837Z,1.80
2018-11-27T07:23:14.700Z,1.79
2018-11-27T07:25:44.889Z,1.81
2018-11-27T07:28:15.979Z,1.81
2018-11-27T07:30:46.773Z,1.84
2018-11-27T07:33:16.881Z,1.85
2018-11-27T07:35:47.983Z,1.86
2018-11-27T07:38:18.856Z,1.87
2018-11-27T07:40:49.626Z,1.87
2018-11-27T07:43:20.109Z,1.88
2018-11-27T07:45:55.235Z,1.89
2018-11-27T07:48:27.755Z,1.92
2018-11-27T07:50:57.930Z,1.95
2018-11-27T07:53:28.854Z,1.95
2018-11-27T07:55:59.957Z,1.99
2018-11-27T07:58:30.706Z,2.02
2018-11-27T08:01:02.049Z,2.03
2018-11-27T08:03:32.937Z,2.09
2018-11-27T08:06:03.155Z,2.08
2018-11-27T08:08:34.008Z,2.08
2018-11-27T08:11:04.165Z,2.05
2018-11-27T08:13:38.886Z,2.06
2018-11-27T08:16:11.066Z,2.05
2018-11-27T08:18:43.047Z,2.09
2018-11-27T08:21:15.082Z,2.06
2018-11-27T08:23:45.160Z,2.03
2018-11-27T08:26:16.874Z,2.09
2018-11-27T08:28:48.077Z,2.13
2018-11-27T08:31:18.728Z,2.12
2018-11-27T08:33:49.587Z,2.10
2018-11-27T08:36:20.208Z,2.11
2018-11-27T08:38:50.224Z,2.19
2018-11-27T08:41:21.617Z,2.17
2018-11-27T08:43:52.290Z,2.14
2018-11-27T08:46:29.204Z,2.21
2018-11-27T08:49:00.337Z,2.19
2018-11-27T08:51:30.484Z,2.26
2018-11-27T08:54:01.221Z,2.23
2018-11-27T08:56:35.073Z,2.27
2018-11-27T08:59:06.985Z,2.28
2018-11-27T09:01:40.162Z,2.30
2018-11-27T09:04:11.244Z,2.40
2018-11-27T09:06:41.325Z,2.39
2018-11-27T09:09:11.653Z,2.22
2018-11-27T09:11:42.341Z,2.41
2018-11-27T09:14:14.070Z,2.48
2018-11-27T09:16:45.325Z,2.49
2018-11-27T09:19:16.778Z,2.50
2018-11-27T09:21:48.415Z,2.54
2018-11-27T09:24:19.252Z,2.59
2018-11-27T09:26:49.498Z,2.63
2018-11-27T09:29:20.249Z,2.68
2018-11-27T09:31:51.260Z,2.70
2018-11-27T09:34:21.589Z,2.73
2018-11-27T09:36:52.320Z,2.76
2018-11-27T09:39:26.172Z,2.79
2018-11-27T09:41:56.477Z,2.81
2018-11-27T09:44:27.531Z,2.86
2018-11-27T09:47:02.543Z,2.87
2018-11-27T09:49:33.475Z,2.89
2018-11-27T09:52:05.717Z,2.91
2018-11-27T09:54:37.530Z,2.93
2018-11-27T09:57:07.723Z,2.95
2018-11-27T09:59:38.577Z,3.01
2018-11-27T10:02:15.316Z,3.04
2018-11-27T10:04:46.407Z,3.02
2018-11-27T10:07:16.875Z,3.10
2018-11-27T10:09:47.620Z,3.14
2018-11-27T10:12:17.646Z,3.15
2018-11-27T10:14:48.765Z,3.18
2018-11-27T10:17:19.488Z,3.21
2018-11-27T10:19:49.564Z,3.24
2018-11-27T10:22:20.627Z,3.23
2018-11-27T10:24:54.567Z,3.35
2018-11-27T10:27:24.628Z,3.36
2018-11-27T10:29:55.567Z,3.39
2018-11-27T10:32:26.668Z,3.52
2018-11-27T10:34:56.644Z,3.59
2018-11-27T10:37:26.748Z,3.68
2018-11-27T10:39:57.754Z,3.75
2018-11-27T10:42:30.243Z,3.81
2018-11-27T10:44:58.766Z,3.93
2018-11-27T10:47:29.840Z,3.89
2018-11-27T10:50:01.391Z,3.95
2018-11-27T10:52:34.577Z,3.95
2018-11-27T10:55:08.058Z,3.99
2018-11-27T10:57:40.960Z,4.07
2018-11-27T11:00:25.244Z,4.15
2018-11-27T11:04:03.735Z,4.12
2018-11-27T11:06:34.891Z,4.19
2018-11-27T11:09:09.954Z,4.22
2018-11-27T11:11:45.528Z,4.35
2018-11-27T11:14:15.810Z,4.45
2018-11-27T11:16:46.793Z,4.45
2018-11-27T11:19:18.485Z,4.53
2018-11-27T11:21:47.868Z,4.50
2018-11-27T11:24:23.815Z,4.49
2018-11-27T11:26:57.655Z,4.35
2018-11-27T11:29:27.939Z,4.31
2018-11-27T11:31:58.954Z,4.25
2018-11-27T11:34:30.027Z,4.19
2018-11-27T11:37:00.097Z,4.05
2018-11-27T11:39:31.504Z,3.98
2018-11-27T11:42:04.100Z,3.93
2018-11-27T11:44:34.999Z,3.94
2018-11-27T11:47:06.650Z,3.85
2018-11-27T11:49:39.014Z,3.78
2018-11-27T11:52:12.848Z,3.81
2018-11-27T11:54:43.739Z,3.83
2018-11-27T11:57:14.166Z,3.73
2018-11-27T11:59:50.929Z,3.69
2018-11-27T12:02:23.255Z,3.72
2018-11-27T12:04:55.094Z,3.76
2018-11-27T12:07:26.180Z,3.76
2018-11-27T12:09:58.016Z,3.80
2018-11-27T12:12:28.172Z,3.79
2018-11-27T12:14:59.197Z,3.78
2018-11-27T12:17:33.034Z,3.79
2018-11-27T12:20:03.306Z,3.83
2018-11-27T12:22:35.671Z,3.81
2018-11-27T12:25:12.032Z,3.85
2018-11-27T12:27:44.119Z,3.90
2018-11-27T12:30:18.123Z,3.89
2018-11-27T12:32:48.379Z,3.90
2018-11-27T12:35:23.593Z,3.95
2018-11-27T12:37:56.035Z,4.02
2018-11-27T12:40:28.880Z,3.97
2018-11-27T12:43:01.367Z,3.97
2018-11-27T12:45:33.784Z,3.97
2018-11-27T12:48:04.652Z,4.07
2018-11-27T12:50:46.448Z,4.07
2018-11-27T12:53:18.166Z,4.08
2018-11-27T12:55:50.375Z,4.05
2018-11-27T12:58:20.431Z,4.06
2018-11-27T13:00:52.493Z,4.07
2018-11-27T13:03:23.531Z,4.04
2018-11-27T13:06:01.552Z,4.07
2018-11-27T13:08:37.385Z,4.06
2018-11-27T13:11:11.455Z,4.17
2018-11-27T13:13:38.359Z,4.10
2018-11-27T13:16:09.463Z,4.05
2018-11-27T13:18:42.623Z,3.97
2018-11-27T13:21:13.623Z,4.05
2018-11-27T13:23:50.359Z,3.91
2018-11-27T13:26:20.543Z,3.86
2018-11-27T13:28:52.682Z,3.84
2018-11-27T13:31:28.653Z,3.82
2018-11-27T13:34:11.655Z,3.76
2018-11-27T13:36:41.940Z,3.73
2018-11-27T13:39:24.016Z,3.72
2018-11-27T13:41:54.132Z,3.74
2018-11-27T13:44:26.772Z,3.68
2018-11-27T13:46:58.599Z,3.64
2018-11-27T13:49:29.503Z,3.57
2018-11-27T13:52:01.642Z,3.52
2018-11-27T13:54:33.390Z,3.47
2018-11-27T13:57:06.196Z,3.44
2018-11-27T13:59:36.704Z,3.41
2018-11-27T14:02:12.491Z,3.39
2018-11-27T14:04:43.743Z,3.34
2018-11-27T14:07:15.893Z,3.33
2018-11-27T14:09:46.876Z,3.31
2018-11-27T14:12:17.313Z,3.27
2018-11-27T14:14:47.731Z,3.25
2018-11-27T14:17:17.936Z,3.29
2018-11-27T14:19:48.677Z,3.29
2018-11-27T14:22:25.114Z,3.30
2018-11-27T14:24:51.698Z,3.26
2018-11-27T14:27:23.773Z,3.23
2018-11-27T14:29:55.837Z,3.22
2018-11-27T14:32:30.753Z,3.25
2018-11-27T14:35:01.827Z,3.17
2018-11-27T14:37:31.935Z,3.17
2018-11-27T14:40:02.952Z,3.13
2018-11-27T14:42:34.137Z,3.12
2018-11-27T14:45:08.909Z,3.07
2018-11-27T14:47:39.776Z,3.04
2018-11-27T14:50:12.625Z,3.01
2018-11-27T14:52:43.889Z,2.96
2018-11-27T14:55:26.875Z,2.91
2018-11-27T14:57:56.957Z,2.86
2018-11-27T15:00:28.257Z,2.87
2018-11-27T15:03:01.575Z,2.82
2018-11-27T15:05:33.191Z,2.81
2018-11-27T15:08:10.486Z,2.74
2018-11-27T15:10:41.935Z,2.72
2018-11-27T15:13:13.660Z,2.70
2018-11-27T15:15:46.000Z,2.72
2018-11-27T15:18:17.136Z,2.67
2018-11-27T15:20:50.832Z,2.64
2018-11-27T15:23:20.925Z,2.60
2018-11-27T15:25:51.965Z,2.57
2018-11-27T15:28:24.143Z,2.54
2018-11-27T15:30:56.270Z,2.52
2018-11-27T15:33:26.868Z,2.51
2018-11-27T15:35:57.021Z,2.50
2018-11-27T15:38:27.061Z,2.48
2018-11-27T15:40:57.075Z,2.47
2018-11-27T15:43:32.963Z,2.43
2018-11-27T15:46:03.069Z,2.44
2018-11-27T15:48:34.319Z,2.46
2018-11-27T15:51:05.396Z,2.44
2018-11-27T15:53:44.028Z,2.41
2018-11-27T15:56:14.322Z,2.39
2018-11-27T15:58:48.093Z,2.36
2018-11-27T16:01:18.139Z,2.34
2018-11-27T16:03:49.151Z,2.32
2018-11-27T16:06:19.661Z,2.33
2018-11-27T16:08:50.201Z,2.36
2018-11-27T16:11:20.750Z,2.32
2018-11-27T16:13:55.351Z,2.29
2018-11-27T16:16:23.889Z,2.26
2018-11-27T16:18:55.284Z,2.24
2018-11-27T16:21:26.301Z,2.22
2018-11-27T16:23:56.315Z,2.24
2018-11-27T16:26:27.368Z,2.23
2018-11-27T16:29:01.071Z,2.21
2018-11-27T16:31:31.498Z,2.20
2018-11-27T16:34:02.288Z,2.21
2018-11-27T16:36:33.378Z,2.19
2018-11-27T16:39:10.764Z,2.15
2018-11-27T16:41:43.409Z,2.14
2018-11-27T16:44:14.324Z,2.11
2018-11-27T16:46:45.141Z,2.07
2018-11-27T16:49:15.488Z,2.06
2018-11-27T16:51:46.354Z,2.07
2018-11-27T16:54:17.301Z,2.09
2018-11-27T16:56:47.483Z,2.05
2018-11-27T16:59:17.520Z,2.08
2018-11-27T17:01:55.433Z,2.05
2018-11-27T17:04:25.546Z,2.07
2018-11-27T17:06:56.415Z,2.09
2018-11-27T17:09:26.683Z,2.11
2018-11-27T17:11:57.504Z,2.10
2018-11-27T17:14:27.624Z,2.10
2018-11-27T17:16:58.553Z,2.09
2018-11-27T17:19:31.608Z,2.13
2018-11-27T17:22:02.485Z,2.11
2018-11-27T17:24:32.579Z,2.06
2018-11-27T17:27:03.588Z,2.05
2018-11-27T17:29:34.557Z,2.04
2018-11-27T17:32:07.795Z,2.05
2018-11-27T17:34:39.617Z,2.06
2018-11-27T17:37:11.635Z,2.02
2018-11-27T17:39:42.435Z,1.97
2018-11-27T17:42:12.549Z,1.96
2018-11-27T17:44:43.641Z,1.99
2018-11-27T17:47:17.854Z,1.98
2018-11-27T17:49:50.697Z,1.93
2018-11-27T17:52:20.735Z,1.94
2018-11-27T17:54:52.684Z,1.91
2018-11-27T17:57:23.751Z,1.89
2018-11-27T17:59:53.772Z,1.90
2018-11-27T18:02:27.733Z,1.93
2018-11-27T18:05:01.572Z,1.97
2018-11-27T18:07:32.708Z,1.98
2018-11-27T18:10:02.711Z,1.99
2018-11-27T18:12:33.953Z,1.96
2018-11-27T18:15:05.137Z,1.91
2018-11-27T18:17:37.893Z,1.92
2018-11-27T18:20:10.145Z,1.92
2018-11-27T18:22:41.885Z,1.90
2018-11-27T18:25:14.815Z,1.94
2018-11-27T18:27:47.207Z,1.90
2018-11-27T18:30:18.863Z,1.87
2018-11-27T18:32:55.750Z,1.85
2018-11-27T18:35:26.833Z,1.86
2018-11-27T18:37:56.875Z,1.88
2018-11-27T18:40:27.789Z,1.85
2018-11-27T18:42:57.970Z,1.87
2018-11-27T18:45:31.248Z,1.84
2018-11-27T18:48:02.011Z,1.82
2018-11-27T18:50:39.968Z,1.68
2018-11-27T18:53:11.909Z,1.62
2018-11-27T18:55:43.042Z,1.61
2018-11-27T18:58:14.030Z,1.58
2018-11-27T19:00:44.234Z,1.52
2018-11-27T19:03:15.304Z,1.42
2018-11-27T19:05:46.411Z,1.34
2018-11-27T19:08:17.659Z,1.25
2018-11-27T19:10:56.652Z,1.16
2018-11-27T19:13:27.954Z,1.10
2018-11-27T19:15:58.133Z,1.01
2018-11-27T19:18:29.147Z,0.95
2018-11-27T19:21:00.973Z,0.85
2018-11-27T19:23:31.925Z,0.75
2018-11-27T19:26:04.003Z,0.70
2018-11-27T19:28:35.144Z,0.67
2018-11-27T19:31:06.316Z,0.60
2018-11-27T19:33:37.244Z,0.52
2018-11-27T19:36:08.186Z,0.49
2018-11-27T19:38:41.356Z,0.43
2018-11-27T19:41:12.078Z,0.43
2018-11-27T19:43:42.199Z,0.41
2018-11-27T19:46:14.208Z,0.40
2018-11-27T19:48:46.373Z,0.45
2018-11-27T19:51:17.512Z,0.51
2018-11-27T19:53:47.826Z,0.52
2018-11-27T19:56:17.984Z,0.48
2018-11-27T19:58:49.179Z,0.41
2018-11-27T20:01:19.834Z,0.41
2018-11-27T20:03:50.214Z,0.42
2018-11-27T20:06:20.901Z,0.41
2018-11-27T20:08:51.278Z,0.44
2018-11-27T20:11:21.366Z,0.46
2018-11-27T20:13:52.922Z,0.58
2018-11-27T20:16:29.258Z,0.57
2018-11-27T20:19:00.316Z,0.54
2018-11-27T20:21:30.443Z,0.56
2018-11-27T20:24:01.421Z,0.59
2018-11-27T20:26:31.430Z,0.59
2018-11-27T20:29:03.430Z,0.61
2018-11-27T20:31:36.410Z,0.61
2018-11-27T20:34:13.337Z,0.59
2018-11-27T20:36:44.169Z,0.54
2018-11-27T20:39:14.517Z,0.49
2018-11-27T20:41:45.060Z,0.44
2018-11-27T20:44:17.488Z,0.39
2018-11-27T20:46:48.427Z,0.37
2018-11-27T20:49:21.196Z,0.41
2018-11-27T20:51:52.498Z,0.41
2018-11-27T20:54:24.561Z,0.39
2018-11-27T20:56:55.788Z,0.36
2018-11-27T20:59:27.606Z,0.36
2018-11-27T21:02:04.465Z,0.42
2018-11-27T21:04:34.946Z,0.45
2018-11-27T21:07:05.813Z,0.48
2018-11-27T21:09:36.204Z,0.44
2018-11-27T21:12:06.806Z,0.41
2018-11-27T21:14:37.319Z,0.37
2018-11-27T21:17:07.836Z,0.35
2018-11-27T21:19:39.607Z,0.27
2018-11-27T21:22:10.505Z,0.26
2018-11-27T21:24:40.758Z,0.28
2018-11-27T21:27:11.754Z,0.26
2018-11-27T21:29:45.533Z,0.29
2018-11-27T21:32:16.732Z,0.28
2018-11-27T21:34:50.021Z,0.27
2018-11-27T21:37:21.668Z,0.26
2018-11-27T21:39:51.735Z,0.28
2018-11-27T21:42:24.543Z,0.27
2018-11-27T21:44:55.928Z,0.29
2018-11-27T21:47:29.644Z,0.26
2018-11-27T21:49:59.723Z,0.28
2018-11-27T21:52:30.728Z,0.30
2018-11-27T21:55:00.996Z,0.16
2018-11-27T21:57:31.752Z,0.25
2018-11-27T22:00:01.844Z,0.28
2018-11-27T22:02:37.759Z,0.29
2018-11-27T22:05:09.483Z,0.22
2018-11-27T22:07:42.245Z,0.25
2018-11-27T22:10:17.245Z,0.28
2018-11-27T22:12:50.231Z,0.27
2018-11-27T22:15:31.907Z,0.29
2018-11-27T22:18:03.331Z,0.24
2018-11-27T22:20:36.108Z,0.23
2018-11-27T22:23:10.529Z,0.27
2018-11-27T22:25:40.662Z,0.26
2018-11-27T22:28:11.139Z,0.26
2018-11-27T22:30:41.741Z,0.28
2018-11-27T22:33:11.871Z,0.25
2018-11-27T22:35:42.994Z,0.16
2018-11-27T22:38:13.003Z,0.22
2018-11-27T22:40:49.822Z,0.18
2018-11-27T22:43:21.144Z,0.08
2018-11-27T22:45:52.000Z,0.06
2018-11-27T22:48:29.777Z,0.08
2018-11-27T22:51:01.950Z,0.10
2018-11-27T22:53:32.835Z,0.12
2018-11-27T22:56:03.227Z,0.18
2018-11-27T22:58:34.148Z,0.21
2018-11-27T23:01:05.176Z,0.22
2018-11-27T23:03:35.200Z,0.22
2018-11-27T23:06:05.879Z,0.22
2018-11-27T23:08:36.149Z,0.19
2018-11-27T23:11:06.820Z,0.22
2018-11-27T23:13:37.103Z,0.25
2018-11-27T23:16:07.408Z,0.22
2018-11-27T23:18:38.241Z,0.23
2018-11-27T23:21:08.941Z,0.21
2018-11-27T23:23:39.099Z,0.19
2018-11-27T23:26:09.167Z,0.11
2018-11-27T23:28:40.681Z,0.12
2018-11-27T23:31:10.863Z,0.12
2018-11-27T23:33:41.244Z,0.03
2018-11-27T23:36:11.773Z,0.03
2018-11-27T23:38:42.135Z,0.06
2018-11-27T23:41:14.382Z,0.07
2018-11-27T23:43:45.368Z,0.09
2018-11-27T23:46:15.895Z,0.13
2018-11-27T23:48:46.236Z,0.11
2018-11-27T23:51:17.169Z,0.12
2018-11-27T23:53:47.891Z,0.11
2018-11-27T23:56:18.035Z,0.15
2018-11-27T23:58:49.342Z,0.13
